createdAt,value
2022-09-15T00:01:19.790Z,100160.20
2022-09-15T00:03:48.536Z,100158.40
2022-09-15T00:06:17.153Z,100158.40
2022-09-15T00:08:45.143Z,100159.60
2022-09-15T00:11:19.752Z,100160.40
2022-09-15T00:13:47.374Z,100158.60
2022-09-15T00:16:18.132Z,100155.20
2022-09-15T00:18:46.566Z,100153.80
2022-09-15T00:21:22.574Z,100160.40
2022-09-15T00:23:51.493Z,100168.00
2022-09-15T00:26:24.926Z,100177.60
2022-09-15T00:28:53.389Z,100173.20
2022-09-15T00:31:24.210Z,100170.00
2022-09-15T00:33:55.629Z,100174.80
2022-09-15T00:36:24.296Z,100181.00
2022-09-15T00:38:52.394Z,100177.40
2022-09-15T00:41:23.054Z,100182.60
2022-09-15T00:44:01.341Z,100182.60
2022-09-15T00:46:39.019Z,100186.20
2022-09-15T00:49:16.152Z,100187.00
2022-09-15T00:52:08.762Z,100188.80
2022-09-15T00:55:10.203Z,100190.40
2022-09-15T00:58:03.551Z,100192.40
2022-09-15T01:00:31.238Z,100190.40
2022-09-15T01:02:59.793Z,100192.80
2022-09-15T01:05:38.256Z,100198.60
2022-09-15T01:08:11.841Z,100196.00
2022-09-15T01:10:41.555Z,100202.00
2022-09-15T01:13:14.620Z,100198.80
2022-09-15T01:16:16.475Z,100208.40
2022-09-15T01:19:16.381Z,100198.80
2022-09-15T01:22:22.637Z,100202.00
2022-09-15T01:25:29.958Z,100198.80
2022-09-15T01:28:44.462Z,100199.00
2022-09-15T01:32:05.873Z,100198.40
2022-09-15T01:34:45.022Z,100202.00
2022-09-15T01:37:24.165Z,100209.40
2022-09-15T01:39:54.426Z,100203.00
2022-09-15T01:42:26.526Z,100200.60
2022-09-15T01:45:03.858Z,100196.00
2022-09-15T01:47:35.218Z,100193.00
2022-09-15T01:50:16.230Z,100199.60
2022-09-15T01:52:49.680Z,100195.20
2022-09-15T01:55:52.187Z,100192.80
2022-09-15T01:58:21.265Z,100198.20
2022-09-15T02:00:59.282Z,100193.40
2022-09-15T02:03:55.403Z,100194.00
2022-09-15T02:06:33.758Z,100194.20
2022-09-15T02:09:12.727Z,100193.80
2022-09-15T02:12:07.734Z,100193.60
2022-09-15T02:15:14.962Z,100193.20
2022-09-15T02:17:47.701Z,100192.80
2022-09-15T02:20:29.776Z,100191.20
2022-09-15T02:23:08.514Z,100194.60
2022-09-15T02:25:48.064Z,100189.00
2022-09-15T02:28:21.609Z,100189.40
2022-09-15T02:30:52.911Z,100184.20
2022-09-15T02:33:24.125Z,100185.80
2022-09-15T02:35:52.693Z,100184.60
2022-09-15T02:38:21.593Z,100186.20
2022-09-15T02:40:49.393Z,100188.60
2022-09-15T02:43:18.726Z,100192.20
2022-09-15T02:45:46.715Z,100187.80
2022-09-15T02:48:14.601Z,100196.80
2022-09-15T02:50:42.374Z,100190.60
2022-09-15T02:53:10.030Z,100191.20
2022-09-15T02:55:37.973Z,100199.20
2022-09-15T02:58:05.755Z,100200.20
2022-09-15T03:00:33.530Z,100193.80
2022-09-15T03:03:01.256Z,100189.00
2022-09-15T03:05:30.441Z,100194.40
2022-09-15T03:07:58.166Z,100199.20
2022-09-15T03:10:26.593Z,100197.20
2022-09-15T03:12:54.981Z,100197.60
2022-09-15T03:15:26.175Z,100198.40
2022-09-15T03:17:54.773Z,100195.80
2022-09-15T03:20:28.573Z,100205.40
2022-09-15T03:22:56.751Z,100208.00
2022-09-15T03:25:26.819Z,100205.40
2022-09-15T03:27:54.520Z,100201.00
2022-09-15T03:30:22.145Z,100200.20
2022-09-15T03:32:50.056Z,100207.60
2022-09-15T03:35:17.929Z,100203.20
2022-09-15T03:37:45.856Z,100202.60
2022-09-15T03:40:14.300Z,100206.80
2022-09-15T03:42:42.575Z,100201.40
2022-09-15T03:45:10.235Z,100205.20
2022-09-15T03:47:37.946Z,100208.00
2022-09-15T03:50:06.908Z,100205.60
2022-09-15T03:52:34.611Z,100203.20
2022-09-15T03:55:02.254Z,100205.60
2022-09-15T03:57:30.479Z,100206.20
2022-09-15T03:59:58.078Z,100204.40
2022-09-15T04:02:25.758Z,100206.20
2022-09-15T04:04:53.436Z,100206.80
2022-09-15T04:07:21.068Z,100200.20
2022-09-15T04:09:48.663Z,100197.60
2022-09-15T04:12:16.735Z,100200.40
2022-09-15T04:14:44.423Z,100197.20
2022-09-15T04:17:12.049Z,100195.40
2022-09-15T04:19:40.649Z,100193.60
2022-09-15T04:22:08.293Z,100191.80
2022-09-15T04:24:35.927Z,100193.40
2022-09-15T04:27:03.974Z,100195.00
2022-09-15T04:29:31.617Z,100192.20
2022-09-15T04:31:59.282Z,100199.40
2022-09-15T04:34:26.923Z,100200.20
2022-09-15T04:36:54.515Z,100193.20
2022-09-15T04:39:22.441Z,100200.00
2022-09-15T04:41:50.109Z,100195.40
2022-09-15T04:44:18.236Z,100193.80
2022-09-15T04:46:46.052Z,100192.80
2022-09-15T04:49:15.081Z,100196.00
2022-09-15T04:51:42.808Z,100203.40
2022-09-15T04:54:10.843Z,100207.40
2022-09-15T04:56:39.478Z,100206.60
2022-09-15T04:59:15.798Z,100209.00
2022-09-15T05:01:44.183Z,100204.00
2022-09-15T05:04:12.457Z,100206.20
2022-09-15T05:06:40.330Z,100207.00
2022-09-15T05:09:10.417Z,100208.60
2022-09-15T05:11:38.647Z,100211.00
2022-09-15T05:14:07.999Z,100212.40
2022-09-15T05:16:36.163Z,100208.60
2022-09-15T05:19:04.694Z,100214.00
2022-09-15T05:21:32.899Z,100219.60
2022-09-15T05:24:00.754Z,100221.80
2022-09-15T05:26:30.148Z,100222.80
2022-09-15T05:28:58.548Z,100222.60
2022-09-15T05:31:36.686Z,100228.00
2022-09-15T05:34:06.248Z,100225.60
2022-09-15T05:36:34.359Z,100224.80
2022-09-15T05:39:02.256Z,100230.00
2022-09-15T05:41:30.869Z,100229.60
2022-09-15T05:43:59.183Z,100234.00
2022-09-15T05:46:29.086Z,100239.40
2022-09-15T05:48:59.018Z,100242.20
2022-09-15T05:51:26.787Z,100242.60
2022-09-15T05:53:54.589Z,100242.20
2022-09-15T05:56:22.476Z,100241.40
2022-09-15T05:58:50.231Z,100251.40
2022-09-15T06:01:22.259Z,100253.20
2022-09-15T06:03:50.613Z,100253.00
2022-09-15T06:06:19.614Z,100253.40
2022-09-15T06:08:55.390Z,100256.40
2022-09-15T06:11:29.040Z,100255.80
2022-09-15T06:14:03.287Z,100261.20
2022-09-15T06:16:34.733Z,100258.40
2022-09-15T06:19:03.373Z,100260.00
2022-09-15T06:21:33.055Z,100258.80
2022-09-15T06:24:06.316Z,100260.40
2022-09-15T06:26:34.744Z,100265.80
2022-09-15T06:29:05.084Z,100268.20
2022-09-15T06:31:34.279Z,100271.00
2022-09-15T06:34:03.976Z,100279.80
2022-09-15T06:36:32.156Z,100272.00
2022-09-15T06:39:00.374Z,100275.00
2022-09-15T06:41:47.434Z,100272.20
2022-09-15T06:44:19.858Z,100276.40
2022-09-15T06:46:49.288Z,100279.20
2022-09-15T06:49:17.587Z,100278.80
2022-09-15T06:51:45.362Z,100279.00
2022-09-15T06:54:15.943Z,100277.00
2022-09-15T06:56:44.494Z,100283.40
2022-09-15T06:59:14.457Z,100282.00
2022-09-15T07:01:46.730Z,100283.60
2022-09-15T07:04:14.394Z,100286.60
2022-09-15T07:06:42.012Z,100286.80
2022-09-15T07:09:11.810Z,100290.20
2022-09-15T07:11:39.865Z,100294.40
2022-09-15T07:14:07.855Z,100295.20
2022-09-15T07:16:35.653Z,100289.00
2022-09-15T07:19:05.752Z,100294.00
2022-09-15T07:21:34.189Z,100297.60
2022-09-15T07:24:06.410Z,100298.00
2022-09-15T07:26:35.343Z,100304.80
2022-09-15T07:29:06.822Z,100301.00
2022-09-15T07:31:37.973Z,100298.60
2022-09-15T07:34:07.032Z,100306.00
2022-09-15T07:36:35.138Z,100306.20
2022-09-15T07:39:04.914Z,100309.20
2022-09-15T07:41:33.428Z,100306.00
2022-09-15T07:44:01.557Z,100305.40
2022-09-15T07:46:32.401Z,100304.00
2022-09-15T07:49:03.082Z,100306.80
2022-09-15T07:51:31.151Z,100308.80
2022-09-15T07:53:59.623Z,100306.80
2022-09-15T07:56:27.462Z,100310.60
2022-09-15T07:58:55.059Z,100316.40
2022-09-15T08:01:22.838Z,100308.40
2022-09-15T08:03:52.633Z,100308.20
2022-09-15T08:06:24.139Z,100308.20
2022-09-15T08:08:57.766Z,100313.80
2022-09-15T08:11:29.073Z,100315.00
2022-09-15T08:14:01.258Z,100320.20
2022-09-15T08:16:29.195Z,100317.40
2022-09-15T08:18:57.030Z,100316.40
2022-09-15T08:21:24.869Z,100319.00
2022-09-15T08:23:56.792Z,100321.40
2022-09-15T08:26:26.696Z,100324.20
2022-09-15T08:28:54.592Z,100322.80
2022-09-15T08:31:24.166Z,100325.40
2022-09-15T08:33:55.034Z,100325.20
2022-09-15T08:36:24.480Z,100332.00
2022-09-15T08:38:52.143Z,100330.60
2022-09-15T08:41:46.727Z,100337.20
2022-09-15T08:44:49.237Z,100335.00
2022-09-15T08:47:25.965Z,100340.00
2022-09-15T08:50:22.911Z,100351.00
2022-09-15T08:52:55.603Z,100345.60
2022-09-15T08:55:50.767Z,100345.60
2022-09-15T08:58:22.875Z,100345.20
2022-09-15T09:01:03.972Z,100347.40
2022-09-15T09:03:49.645Z,100348.00
2022-09-15T09:06:35.601Z,100351.60
2022-09-15T09:09:18.509Z,100351.40
2022-09-15T09:12:26.398Z,100354.00
2022-09-15T09:15:15.932Z,100352.80
2022-09-15T09:18:16.573Z,100349.40
2022-09-15T09:21:18.390Z,100351.80
2022-09-15T09:24:01.162Z,100350.80
2022-09-15T09:26:33.122Z,100357.20
2022-09-15T09:29:11.848Z,100352.40
2022-09-15T09:31:41.766Z,100350.60
2022-09-15T09:34:20.662Z,100353.40
2022-09-15T09:37:00.117Z,100361.80
2022-09-15T09:39:28.619Z,100359.00
2022-09-15T09:41:56.895Z,100355.80
2022-09-15T09:44:31.778Z,100359.60
2022-09-15T09:47:01.513Z,100361.40
2022-09-15T09:49:43.166Z,100355.40
2022-09-15T09:52:11.046Z,100357.80
2022-09-15T09:54:39.273Z,100360.60
2022-09-15T09:57:13.286Z,100358.40
2022-09-15T09:59:47.701Z,100365.00
2022-09-15T10:02:19.084Z,100369.00
2022-09-15T10:05:12.227Z,100367.20
2022-09-15T10:07:45.764Z,100360.80
2022-09-15T10:10:28.664Z,100363.20
2022-09-15T10:12:56.955Z,100366.60
2022-09-15T10:15:32.174Z,100363.00
2022-09-15T10:18:01.374Z,100365.20
2022-09-15T10:20:48.105Z,100372.60
2022-09-15T10:23:18.408Z,100364.40
2022-09-15T10:26:01.578Z,100362.20
2022-09-15T10:28:29.298Z,100361.60
2022-09-15T10:31:03.901Z,100362.80
2022-09-15T10:33:35.242Z,100359.20
2022-09-15T10:36:05.680Z,100359.20
2022-09-15T10:39:00.068Z,100365.80
2022-09-15T10:41:31.361Z,100361.20
2022-09-15T10:44:33.901Z,100361.20
2022-09-15T10:47:24.044Z,100365.00
2022-09-15T10:50:28.225Z,100365.20
2022-09-15T10:53:26.447Z,100363.20
2022-09-15T10:56:26.149Z,100364.80
2022-09-15T10:59:09.475Z,100358.60
2022-09-15T11:01:45.743Z,100357.40
2022-09-15T11:04:50.727Z,100365.60
2022-09-15T11:08:11.934Z,100365.80
2022-09-15T11:10:55.706Z,100375.60
2022-09-15T11:13:56.680Z,100373.80
2022-09-15T11:16:38.704Z,100371.00
2022-09-15T11:19:27.521Z,100373.20
2022-09-15T11:22:05.204Z,100379.60
2022-09-15T11:24:48.318Z,100377.60
2022-09-15T11:27:29.831Z,100375.60
2022-09-15T11:30:20.039Z,100383.20
2022-09-15T11:33:22.911Z,100381.80
2022-09-15T11:36:02.567Z,100388.20
2022-09-15T11:38:55.461Z,100383.20
2022-09-15T11:41:45.822Z,100391.80
2022-09-15T11:44:20.370Z,100383.80
2022-09-15T11:47:22.306Z,100385.20
2022-09-15T11:50:20.025Z,100379.60
2022-09-15T11:53:06.646Z,100374.60
2022-09-15T11:55:44.499Z,100384.80
2022-09-15T11:58:29.372Z,100381.40
2022-09-15T12:01:04.269Z,100388.60
2022-09-15T12:03:52.755Z,100392.20
2022-09-15T12:06:45.911Z,100400.40
2022-09-15T12:09:20.471Z,100399.20
2022-09-15T12:11:54.341Z,100396.00
2022-09-15T12:14:35.446Z,100391.80
2022-09-15T12:17:05.516Z,100400.60
2022-09-15T12:19:36.263Z,100399.80
2022-09-15T12:22:23.623Z,100403.20
2022-09-15T12:25:03.664Z,100407.80
2022-09-15T12:27:31.450Z,100409.80
2022-09-15T12:30:00.914Z,100411.60
2022-09-15T12:32:34.820Z,100410.80
2022-09-15T12:35:19.969Z,100410.00
2022-09-15T12:37:54.103Z,100406.40
2022-09-15T12:40:37.430Z,100412.80
2022-09-15T12:43:11.387Z,100411.00
2022-09-15T12:45:52.547Z,100413.20
2022-09-15T12:48:32.426Z,100408.00
2022-09-15T12:51:10.330Z,100412.60
2022-09-15T12:53:58.578Z,100415.00
2022-09-15T12:56:33.419Z,100416.40
2022-09-15T12:59:07.163Z,100408.20
2022-09-15T13:01:50.429Z,100413.20
2022-09-15T13:04:43.592Z,100417.00
2022-09-15T13:07:19.948Z,100411.40
2022-09-15T13:10:27.690Z,100412.00
2022-09-15T13:13:17.933Z,100417.80
2022-09-15T13:15:50.573Z,100414.00
2022-09-15T13:18:20.901Z,100413.40
2022-09-15T13:21:05.375Z,100416.80
2022-09-15T13:23:41.618Z,100414.80
2022-09-15T13:26:17.774Z,100413.80
2022-09-15T13:28:48.756Z,100416.40
2022-09-15T13:31:50.878Z,100416.60
2022-09-15T13:35:05.205Z,100414.80
2022-09-15T13:38:22.981Z,100413.60
2022-09-15T13:41:05.281Z,100405.60
2022-09-15T13:43:41.008Z,100405.20
2022-09-15T13:46:35.948Z,100399.80
2022-09-15T13:49:32.810Z,100394.40
2022-09-15T13:52:42.037Z,100403.40
2022-09-15T13:55:27.885Z,100397.80
2022-09-15T14:01:06.912Z,100397.60
2022-09-15T14:04:00.704Z,100403.40
2022-09-15T14:06:35.061Z,100400.60
2022-09-15T14:09:18.076Z,100394.80
2022-09-15T14:11:53.114Z,100395.20
2022-09-15T14:14:44.405Z,100392.00
2022-09-15T14:17:23.958Z,100393.60
2022-09-15T14:19:55.977Z,100388.40
2022-09-15T14:22:33.652Z,100391.00
2022-09-15T14:25:16.556Z,100389.20
2022-09-15T14:27:49.681Z,100389.20
2022-09-15T14:30:29.785Z,100388.60
2022-09-15T14:33:02.815Z,100390.80
2022-09-15T14:35:37.083Z,100388.80
2022-09-15T14:38:05.298Z,100389.40
2022-09-15T14:40:39.430Z,100387.20
2022-09-15T14:43:39.561Z,100386.20
2022-09-15T14:46:17.939Z,100390.20
2022-09-15T14:48:45.792Z,100390.00
2022-09-15T14:51:28.657Z,100387.80
2022-09-15T14:54:01.094Z,100399.60
2022-09-15T14:56:42.249Z,100392.20
2022-09-15T14:59:43.230Z,100398.80
2022-09-15T15:02:35.717Z,100401.40
2022-09-15T15:05:41.098Z,100402.20
2022-09-15T15:08:18.788Z,100406.60
2022-09-15T15:10:46.675Z,100405.80
2022-09-15T15:13:17.724Z,100408.20
2022-09-15T15:15:46.396Z,100408.40
2022-09-15T15:18:40.421Z,100408.40
2022-09-15T15:21:33.669Z,100415.40
2022-09-15T15:24:17.155Z,100414.80
2022-09-15T15:26:48.287Z,100413.00
2022-09-15T15:29:48.262Z,100422.60
2022-09-15T15:32:27.179Z,100422.40
2022-09-15T15:35:01.737Z,100418.60
2022-09-15T15:37:33.845Z,100417.20
2022-09-15T15:40:07.012Z,100418.60
2022-09-15T15:42:34.937Z,100419.80
2022-09-15T15:45:26.017Z,100415.20
2022-09-15T15:47:53.930Z,100419.60
2022-09-15T15:50:28.153Z,100422.80
2022-09-15T15:52:55.998Z,100426.60
2022-09-15T15:55:30.932Z,100431.20
2022-09-15T15:57:59.009Z,100428.60
2022-09-15T16:00:38.768Z,100432.20
2022-09-15T16:03:07.097Z,100435.60
2022-09-15T16:05:34.938Z,100438.40
2022-09-15T16:08:11.209Z,100439.00
2022-09-15T16:10:44.581Z,100437.00
2022-09-15T16:13:18.776Z,100439.60
2022-09-15T16:15:47.229Z,100440.00
2022-09-15T16:18:15.530Z,100437.60
2022-09-15T16:20:43.902Z,100442.80
2022-09-15T16:23:17.348Z,100445.40
2022-09-15T16:25:54.225Z,100450.20
2022-09-15T16:28:22.102Z,100443.40
2022-09-15T16:30:50.003Z,100441.40
2022-09-15T16:33:19.108Z,100444.40
2022-09-15T16:35:56.006Z,100443.80
2022-09-15T16:38:25.873Z,100444.40
2022-09-15T16:40:53.757Z,100445.60
2022-09-15T16:43:22.524Z,100450.20
2022-09-15T16:45:51.455Z,100446.20
2022-09-15T16:48:19.764Z,100444.60
2022-09-15T16:51:08.407Z,100442.00
2022-09-15T16:53:39.447Z,100449.80
2022-09-15T16:56:11.752Z,100456.20
2022-09-15T16:58:40.851Z,100454.40
2022-09-15T17:01:19.123Z,100454.60
2022-09-15T17:03:48.841Z,100455.60
2022-09-15T17:06:22.099Z,100460.00
2022-09-15T17:08:50.645Z,100461.20
2022-09-15T17:11:20.924Z,100463.40
2022-09-15T17:13:48.731Z,100472.00
2022-09-15T17:16:19.678Z,100464.00
2022-09-15T17:18:50.458Z,100466.20
2022-09-15T17:21:20.623Z,100464.60
2022-09-15T17:23:50.387Z,100460.20
2022-09-15T17:26:31.044Z,100466.60
2022-09-15T17:28:59.749Z,100470.40
2022-09-15T17:31:27.965Z,100469.00
2022-09-15T17:33:56.417Z,100472.80
2022-09-15T17:36:25.134Z,100474.40
2022-09-15T17:38:53.641Z,100473.20
2022-09-15T17:41:24.271Z,100475.40
2022-09-15T17:43:53.238Z,100473.20
2022-09-15T17:46:24.194Z,100473.20
2022-09-15T17:48:52.473Z,100468.60
2022-09-15T17:51:20.836Z,100472.60
2022-09-15T17:53:49.600Z,100471.20
2022-09-15T17:56:17.636Z,100475.00
2022-09-15T17:58:45.817Z,100483.60
2022-09-15T18:01:16.140Z,100479.40
2022-09-15T18:03:45.619Z,100478.20
2022-09-15T18:06:14.387Z,100476.40
2022-09-15T18:08:42.076Z,100482.40
2022-09-15T18:11:14.461Z,100481.20
2022-09-15T18:13:48.861Z,100484.20
2022-09-15T18:16:18.020Z,100486.40
2022-09-15T18:18:49.990Z,100485.40
2022-09-15T18:21:28.829Z,100490.60
2022-09-15T18:23:56.673Z,100494.20
2022-09-15T18:26:26.625Z,100498.80
2022-09-15T18:28:55.912Z,100500.80
2022-09-15T18:31:24.257Z,100502.40
2022-09-15T18:33:53.070Z,100499.80
2022-09-15T18:36:21.551Z,100503.60
2022-09-15T18:38:52.294Z,100507.80
2022-09-15T18:41:20.809Z,100514.80
2022-09-15T18:43:52.418Z,100516.40
2022-09-15T18:46:21.245Z,100521.80
2022-09-15T18:48:50.241Z,100521.20
2022-09-15T18:51:29.091Z,100527.40
2022-09-15T18:54:03.460Z,100530.20
2022-09-15T18:56:32.423Z,100533.60
2022-09-15T18:59:00.108Z,100536.60
2022-09-15T19:01:28.790Z,100539.40
2022-09-15T19:04:00.926Z,100539.00
2022-09-15T19:06:30.727Z,100546.40
2022-09-15T19:08:59.201Z,100550.00
2022-09-15T19:11:29.241Z,100550.40
2022-09-15T19:14:04.430Z,100548.60
2022-09-15T19:16:56.594Z,100557.00
2022-09-15T19:19:30.126Z,100560.80
2022-09-15T19:22:01.724Z,100565.00
2022-09-15T19:24:37.015Z,100562.60
2022-09-15T19:27:09.737Z,100566.60
2022-09-15T19:29:41.547Z,100566.60
2022-09-15T19:32:20.255Z,100568.60
2022-09-15T19:34:50.024Z,100570.00
2022-09-15T19:37:20.986Z,100569.00
2022-09-15T19:40:03.213Z,100575.00
2022-09-15T19:42:32.644Z,100573.00
2022-09-15T19:45:00.256Z,100570.00
2022-09-15T19:47:27.966Z,100571.40
2022-09-15T19:49:55.701Z,100578.00
2022-09-15T19:52:23.528Z,100576.60
2022-09-15T19:54:51.230Z,100584.40
2022-09-15T19:57:19.623Z,100590.40
2022-09-15T19:59:47.268Z,100590.60
2022-09-15T20:02:15.168Z,100591.00
2022-09-15T20:04:43.469Z,100593.20
2022-09-15T20:07:12.460Z,100600.80
2022-09-15T20:09:40.535Z,100602.80
2022-09-15T20:12:08.246Z,100607.00
2022-09-15T20:14:35.993Z,100603.60
2022-09-15T20:17:04.289Z,100592.40
2022-09-15T20:19:32.528Z,100592.60
2022-09-15T20:22:00.197Z,100588.80
2022-09-15T20:24:27.890Z,100598.20
2022-09-15T20:26:55.520Z,100599.20
2022-09-15T20:29:23.790Z,100599.20
2022-09-15T20:31:51.548Z,100592.20
2022-09-15T20:34:19.304Z,100602.40
2022-09-15T20:36:46.996Z,100611.80
2022-09-15T20:39:18.729Z,100609.20
2022-09-15T20:41:46.454Z,100615.80
2022-09-15T20:44:14.991Z,100614.00
2022-09-15T20:46:43.191Z,100610.60
2022-09-15T20:49:12.276Z,100609.20
2022-09-15T20:51:40.153Z,100617.00
2022-09-15T20:54:07.875Z,100622.00
2022-09-15T20:56:35.856Z,100618.80
2022-09-15T20:59:05.194Z,100627.20
2022-09-15T21:01:36.654Z,100628.00
2022-09-15T21:04:07.550Z,100635.40
2022-09-15T21:06:36.157Z,100630.40
2022-09-15T21:09:05.161Z,100634.20
2022-09-15T21:11:33.547Z,100630.60
2022-09-15T21:14:01.632Z,100631.80
2022-09-15T21:16:30.057Z,100633.00
2022-09-15T21:18:58.776Z,100635.40
2022-09-15T21:21:30.188Z,100632.40
2022-09-15T21:24:01.812Z,100634.40
2022-09-15T21:26:31.978Z,100637.20
2022-09-15T21:29:00.090Z,100639.80
2022-09-15T21:31:33.316Z,100639.00
2022-09-15T21:34:00.954Z,100640.80
2022-09-15T21:36:31.634Z,100645.60
2022-09-15T21:38:59.628Z,100646.00
2022-09-15T21:41:30.019Z,100649.60
2022-09-15T21:43:59.385Z,100647.60
2022-09-15T21:46:30.762Z,100644.80
2022-09-15T21:48:59.617Z,100647.80
2022-09-15T21:51:29.815Z,100647.00
2022-09-15T21:53:59.356Z,100652.80
2022-09-15T21:56:29.825Z,100652.20
2022-09-15T21:58:58.045Z,100653.40
2022-09-15T22:01:29.787Z,100652.80
2022-09-15T22:04:06.559Z,100652.80
2022-09-15T22:06:40.218Z,100658.00
2022-09-15T22:09:21.714Z,100657.40
2022-09-15T22:11:49.494Z,100655.40
2022-09-15T22:14:17.711Z,100660.00
2022-09-15T22:16:45.422Z,100659.20
2022-09-15T22:19:13.288Z,100660.00
2022-09-15T22:21:42.037Z,100663.60
2022-09-15T22:24:13.051Z,100677.00
2022-09-15T22:26:42.681Z,100672.00
2022-09-15T22:29:11.469Z,100664.60
2022-09-15T22:31:39.314Z,100662.40
2022-09-15T22:34:07.046Z,100661.20
2022-09-15T22:36:34.978Z,100665.00
2022-09-15T22:39:05.234Z,100669.60
2022-09-15T22:41:39.622Z,100666.20
2022-09-15T22:44:17.893Z,100666.60
2022-09-15T22:46:46.047Z,100662.80
2022-09-15T22:49:13.878Z,100666.60
2022-09-15T22:51:41.846Z,100663.20
2022-09-15T22:54:09.561Z,100664.80
2022-09-15T22:56:37.252Z,100668.60
2022-09-15T22:59:04.895Z,100667.60
2022-09-15T23:01:32.522Z,100665.40
2022-09-15T23:04:02.181Z,100673.60
2022-09-15T23:06:33.593Z,100669.60
2022-09-15T23:09:06.105Z,100667.20
2022-09-15T23:11:34.669Z,100668.40
2022-09-15T23:14:03.169Z,100673.40
2022-09-15T23:16:31.948Z,100672.40
2022-09-15T23:19:00.126Z,100674.80
2022-09-15T23:21:28.473Z,100674.60
2022-09-15T23:23:56.722Z,100673.20
2022-09-15T23:26:25.713Z,100672.00
2022-09-15T23:28:53.823Z,100672.60
2022-09-15T23:31:22.620Z,100676.80
2022-09-15T23:33:50.576Z,100676.60
2022-09-15T23:36:19.637Z,100674.60
2022-09-15T23:38:48.646Z,100679.60
2022-09-15T23:41:17.599Z,100679.20
2022-09-15T23:43:46.310Z,100679.00
2022-09-15T23:46:15.157Z,100681.00
2022-09-15T23:48:43.088Z,100675.80
2022-09-15T23:51:10.782Z,100672.80
2022-09-15T23:53:38.555Z,100672.40
2022-09-15T23:56:06.961Z,100678.00
2022-09-15T23:58:34.933Z,100666.80
